Tuesday, January 16, 2018, 11:49 AM GMT
Back to Local

CZBF, Bathurst Airport Aviation Weather Reporting Station

Location: , , Canada Lat: 47.633
Local Time: 11:49 AM GMT (11:49 GMT) Lon: -65.75
Time Zone: GMT Elev: 193 ft

Show me the last for .
Show Coded

Time T Td Feel RH Dir Speed Gust Alt SLP Vis Weather Sky Remarks
2018-01-16 11:00 7 3 -3 84 320° 6 - 30.53 30.55 12 -SN OVC014 None
2018-01-16 10:00 7 3 -5 84 350° 7 - 30.53 30.55 10 -SN OVC013 None
2018-01-16 09:00 9 3 0 78 340° 5 - 30.55 30.57 10 -SN OVC013 None
2018-01-16 08:00 9 5 -1 84 340° 6 - 30.57 30.59 12 -SN OVC014 None
2018-01-16 07:00 9 5 -3 84 330° 7 - 30.60 30.62 12 -SN OVC015 None
2018-01-16 06:00 9 5 2 84 330° 3 - 30.62 30.64 15 -SN OVC016 None
2018-01-16 05:00 9 5 0 84 30° 5 - 30.64 30.66 12 -SN OVC018 None
2018-01-16 04:00 10 5 1 78 20° 6 - 30.67 30.70 15 -SN OVC020 None
2018-01-16 03:00 10 5 1 78 40° 6 - 30.71 30.73 15 -SN OVC020 None
2018-01-16 02:00 9 5 2 84 20° 3 - 30.73 30.76 12 -SN OVC020 None
2018-01-16 01:00 7 3 - 84 Variable 2 - 30.78 30.80 12 -SN OVC025 Pressure falling rapidly
2018-01-16 00:00 5 1 - 84 - Calm - 30.81 30.83 12 -SN OVC025 None
2018-01-15 23:00 5 1 - 84 310° 2 - 30.82 30.84 8 -SN OVC020 None
2018-01-15 22:45 5 1 -4 84 310° 5 - 30.82 30.84 10 -SN OVC020 Pressure falling rapidly
2018-01-15 22:00 3 0 - 84 - Calm - 30.83 30.85 15 OVC120 None
2018-01-15 21:00 7 3 - 84 - Calm - 30.83 30.86 15 FEW020 SCT210 OVC230 None
2018-01-15 20:00 9 3 0 78 20° 5 - 30.84 30.86 15 FEW020 FEW140 SCT160 BKN210 None
2018-01-15 19:00 7 1 -3 77 20° 6 - 30.84 30.87 15 FEW030 OVC120 None
2018-01-15 18:00 7 0 0 71 100° 3 - 30.89 30.91 15 FEW020 BKN100 None
2018-01-15 17:00 5 0 -4 77 110° 5 - 30.90 30.92 15 OVC020 None
2018-01-15 16:00 5 -2 -2 71 350° 3 - 30.92 30.94 15 BKN050 None
2018-01-15 15:00 1 -4 -6 77 340° 3 - 30.94 30.96 15 BKN030 None
2018-01-15 14:00 -4 -9 - 76 220° 2 - 30.95 30.97 15 BKN050 None
2018-01-15 13:00 -11 -17 - 76 240° 2 - 30.95 30.97 15 FEW030 None
2018-01-15 12:00 -9 -13 - 83 340° 2 - 30.90 30.93 15 FEW030 FEW240 None

Support USWX by starting your Amazon purchase here.